Terminal Aerodrome Forecast
Issued by NWS

Home | Current Version | Previous Version | Text Only | Print | Product List | Glossary On
Versions: 1 2 3 4 5 6 7 8 9 10 11 12 13 14 15
000
FTUS42 KGSP 201740
TAFGMU
TAF
KGMU 201740Z 2018/2118 06003KT 5SM -DZ BR OVC007
     FM202100 07003KT 6SM BR OVC017
     FM210100 06003KT P6SM OVC024
     FM210700 00000KT 4SM BR OVC019
     FM211200 05003KT 3SM BR OVC010
     FM211300 05003KT P6SM OVC017=

USA.gov is the U.S. government's official web portal to all federal, state and local government web resources and services.